createdAt,value
2018-12-19T00:01:07.273Z,4.00
2018-12-19T00:03:35.568Z,3.93
2018-12-19T00:06:09.533Z,3.80
2018-12-19T00:08:37.933Z,4.00
2018-12-19T00:11:06.253Z,3.67
2018-12-19T00:13:39.957Z,3.43
2018-12-19T00:16:08.786Z,3.90
2018-12-19T00:18:37.337Z,3.60
2018-12-19T00:21:05.508Z,3.40
2018-12-19T00:23:34.072Z,3.23
2018-12-19T00:26:02.450Z,3.63
2018-12-19T00:28:30.824Z,4.20
2018-12-19T00:30:59.150Z,3.70
2018-12-19T00:33:27.428Z,3.20
2018-12-19T00:35:55.785Z,3.30
2018-12-19T00:38:29.167Z,3.13
2018-12-19T00:40:57.562Z,3.67
2018-12-19T00:43:25.985Z,3.17
2018-12-19T00:45:54.362Z,3.50
2018-12-19T00:48:23.610Z,3.67
2018-12-19T00:50:52.016Z,3.77
2018-12-19T00:53:20.569Z,3.60
2018-12-19T00:55:49.149Z,3.93
2018-12-19T00:58:17.657Z,3.73
2018-12-19T01:00:46.300Z,3.70
2018-12-19T01:03:14.809Z,3.50
2018-12-19T01:05:43.553Z,3.40
2018-12-19T01:08:12.254Z,3.70
2018-12-19T01:10:41.859Z,3.70
2018-12-19T01:13:10.318Z,3.17
2018-12-19T01:15:38.895Z,3.50
2018-12-19T01:18:07.137Z,3.67
2018-12-19T01:20:35.634Z,3.50
2018-12-19T01:23:04.181Z,3.60
2018-12-19T01:25:32.432Z,3.80
2018-12-19T01:28:00.791Z,3.67
2018-12-19T01:30:29.069Z,3.57
2018-12-19T01:32:58.258Z,4.07
2018-12-19T01:35:26.663Z,3.50
2018-12-19T01:37:54.957Z,3.60
2018-12-19T01:40:23.296Z,3.77
2018-12-19T01:42:51.754Z,3.87
2018-12-19T01:45:20.301Z,3.30
2018-12-19T01:47:48.941Z,3.87
2018-12-19T01:50:17.631Z,3.43
2018-12-19T01:52:46.365Z,3.53
2018-12-19T01:55:14.829Z,4.20
2018-12-19T01:57:43.162Z,4.37
2018-12-19T02:00:11.521Z,4.23
2018-12-19T02:02:40.332Z,4.40
2018-12-19T02:05:08.629Z,3.57
2018-12-19T02:07:37.128Z,4.27
2018-12-19T02:10:05.514Z,3.90
2018-12-19T02:12:33.927Z,3.43
2018-12-19T02:15:02.321Z,3.33
2018-12-19T02:17:30.939Z,4.10
2018-12-19T02:19:59.407Z,4.30
2018-12-19T02:22:27.700Z,3.40
2018-12-19T02:24:56.169Z,3.87
2018-12-19T02:30:11.192Z,3.67
2018-12-19T02:32:39.988Z,3.60
2018-12-19T02:35:08.329Z,3.63
2018-12-19T02:37:36.685Z,4.17
2018-12-19T02:40:05.323Z,3.70
2018-12-19T02:42:33.769Z,3.80
2018-12-19T02:45:02.297Z,3.93
2018-12-19T02:47:30.715Z,4.07
2018-12-19T02:49:59.588Z,3.83
2018-12-19T02:52:28.092Z,4.00
2018-12-19T02:54:57.207Z,3.60
2018-12-19T02:57:25.479Z,3.70
2018-12-19T02:59:53.963Z,4.00
2018-12-19T03:02:22.342Z,3.70
2018-12-19T03:04:51.319Z,4.10
2018-12-19T03:07:19.814Z,3.90
2018-12-19T03:09:48.196Z,3.40
2018-12-19T03:12:16.484Z,4.03
2018-12-19T03:14:44.762Z,4.00
2018-12-19T03:17:12.940Z,3.67
2018-12-19T03:19:41.414Z,3.80
2018-12-19T03:22:09.656Z,3.42
2018-12-19T03:24:38.850Z,3.67
2018-12-19T03:27:07.050Z,3.20
2018-12-19T03:29:35.352Z,3.50
2018-12-19T03:32:04.100Z,3.50
2018-12-19T03:34:32.393Z,3.60
2018-12-19T03:37:00.714Z,3.90
2018-12-19T03:39:28.956Z,3.97
2018-12-19T03:41:57.414Z,3.20
2018-12-19T03:44:25.812Z,3.47
2018-12-19T03:46:54.801Z,2.93
2018-12-19T03:49:23.144Z,3.65
2018-12-19T03:51:51.676Z,3.77
2018-12-19T03:54:20.165Z,3.67
2018-12-19T03:56:48.686Z,3.87
2018-12-19T03:59:17.206Z,3.80
2018-12-19T04:01:45.631Z,3.80
2018-12-19T04:04:14.052Z,3.70
2018-12-19T04:06:42.453Z,3.90
2018-12-19T04:09:10.767Z,3.87
2018-12-19T04:11:39.015Z,4.20
2018-12-19T04:14:07.577Z,4.10
2018-12-19T04:16:36.422Z,3.80
2018-12-19T04:19:05.780Z,3.83
2018-12-19T04:21:34.169Z,3.83
2018-12-19T04:24:02.444Z,4.20
2018-12-19T04:26:31.028Z,4.10
2018-12-19T04:28:59.204Z,3.90
2018-12-19T04:31:27.679Z,3.73
2018-12-19T04:33:56.206Z,3.20
2018-12-19T04:36:24.478Z,3.90
2018-12-19T04:38:52.874Z,4.10
2018-12-19T04:41:21.072Z,4.00
2018-12-19T04:43:49.827Z,3.80
2018-12-19T04:46:18.056Z,4.50
2018-12-19T04:48:46.358Z,3.90
2018-12-19T04:51:14.829Z,4.40
2018-12-19T04:53:43.070Z,4.60
2018-12-19T04:56:16.624Z,4.23
2018-12-19T04:58:44.973Z,4.27
2018-12-19T05:01:13.209Z,4.50
2018-12-19T05:03:41.638Z,4.00
2018-12-19T05:06:10.424Z,4.37
2018-12-19T05:08:38.632Z,4.70
2018-12-19T05:11:06.910Z,4.77
2018-12-19T05:13:35.265Z,4.70
2018-12-19T05:16:03.715Z,4.27
2018-12-19T05:18:32.032Z,5.00
2018-12-19T05:21:00.425Z,4.63
2018-12-19T05:23:28.904Z,4.67
2018-12-19T05:25:57.174Z,4.60
2018-12-19T05:28:25.450Z,5.10
2018-12-19T05:30:53.813Z,4.53
2018-12-19T05:33:22.110Z,4.60
2018-12-19T05:35:50.288Z,4.80
2018-12-19T05:38:18.589Z,4.63
2018-12-19T05:40:47.275Z,4.10
2018-12-19T05:43:15.722Z,4.27
2018-12-19T05:45:44.379Z,4.33
2018-12-19T05:48:12.921Z,4.13
2018-12-19T05:50:41.365Z,4.50
2018-12-19T05:53:09.789Z,4.67
2018-12-19T05:55:38.656Z,4.77
2018-12-19T05:58:07.198Z,4.53
2018-12-19T06:00:35.654Z,4.20
2018-12-19T06:03:03.960Z,4.57
2018-12-19T06:05:32.964Z,4.30
2018-12-19T06:08:01.598Z,4.77
2018-12-19T06:10:30.012Z,4.77
2018-12-19T06:12:58.663Z,4.83
2018-12-19T06:15:27.039Z,4.60
2018-12-19T06:17:55.526Z,4.63
2018-12-19T06:20:24.116Z,4.53
2018-12-19T06:22:52.352Z,4.63
2018-12-19T06:25:21.836Z,4.90
2018-12-19T06:27:50.234Z,4.87
2018-12-19T06:30:19.138Z,4.60
2018-12-19T06:32:47.744Z,4.73
2018-12-19T06:35:16.317Z,4.33
2018-12-19T06:37:44.549Z,4.23
2018-12-19T06:40:13.037Z,4.57
2018-12-19T06:42:41.549Z,5.00
2018-12-19T06:45:11.833Z,4.90
2018-12-19T06:47:40.030Z,5.13
2018-12-19T06:50:09.055Z,5.40
2018-12-19T06:52:37.266Z,5.13
2018-12-19T06:55:05.936Z,4.37
2018-12-19T06:57:34.715Z,4.90
2018-12-19T07:00:03.442Z,5.20
2018-12-19T07:02:31.871Z,4.70
2018-12-19T07:05:00.145Z,5.20
2018-12-19T07:07:28.794Z,5.07
2018-12-19T07:09:57.546Z,5.23
2018-12-19T07:12:25.772Z,5.17
2018-12-19T07:14:54.097Z,5.30
2018-12-19T07:17:22.586Z,5.20
2018-12-19T07:19:50.855Z,5.53
2018-12-19T07:22:19.657Z,5.33
2018-12-19T07:24:47.985Z,5.83
2018-12-19T07:27:16.697Z,5.90
2018-12-19T07:29:45.152Z,5.83
2018-12-19T07:32:13.438Z,5.50
2018-12-19T07:34:44.308Z,5.90
2018-12-19T07:37:12.125Z,5.90
2018-12-19T07:39:41.447Z,5.70
2018-12-19T07:42:09.716Z,5.90
2018-12-19T07:44:38.136Z,5.90
2018-12-19T07:47:06.942Z,7.00
2018-12-19T07:49:35.811Z,6.45
2018-12-19T07:52:04.153Z,6.87
2018-12-19T07:54:32.531Z,6.50
2018-12-19T07:57:00.766Z,6.50
2018-12-19T07:59:29.066Z,7.07
2018-12-19T08:01:57.518Z,6.60
2018-12-19T08:04:25.926Z,6.73
2018-12-19T08:06:54.266Z,6.83
2018-12-19T08:09:22.998Z,7.70
2018-12-19T08:11:51.279Z,6.83
2018-12-19T08:14:19.489Z,7.50
2018-12-19T08:16:47.770Z,7.17
2018-12-19T08:19:16.165Z,7.23
2018-12-19T08:21:44.371Z,7.43
2018-12-19T08:24:12.665Z,7.87
2018-12-19T08:26:41.077Z,7.77
2018-12-19T08:29:10.346Z,7.90
2018-12-19T08:31:38.885Z,8.33
2018-12-19T08:34:07.401Z,7.90
2018-12-19T08:36:35.729Z,7.83
2018-12-19T08:39:06.373Z,7.13
2018-12-19T08:41:35.701Z,8.10
2018-12-19T08:44:04.214Z,7.67
2018-12-19T08:46:32.608Z,7.90
2018-12-19T08:49:01.280Z,8.20
2018-12-19T08:51:29.529Z,7.47
2018-12-19T08:53:57.978Z,7.57
2018-12-19T08:56:26.196Z,7.07
2018-12-19T08:58:54.502Z,7.27
2018-12-19T09:01:23.070Z,7.50
2018-12-19T09:03:51.381Z,7.47
2018-12-19T09:06:21.636Z,7.23
2018-12-19T09:08:50.210Z,7.37
2018-12-19T09:11:18.426Z,7.43
2018-12-19T09:13:46.834Z,7.27
2018-12-19T09:16:15.063Z,7.33
2018-12-19T09:18:43.284Z,7.27
2018-12-19T09:21:11.470Z,7.20
2018-12-19T09:23:40.190Z,7.33
2018-12-19T09:26:08.637Z,7.53
2018-12-19T09:28:37.146Z,7.47
2018-12-19T09:31:05.435Z,7.50
2018-12-19T09:33:33.790Z,7.23
2018-12-19T09:36:02.677Z,7.30
2018-12-19T09:38:31.049Z,6.95
2018-12-19T09:40:59.419Z,7.10
2018-12-19T09:43:27.793Z,7.03
2018-12-19T09:45:56.183Z,7.33
2018-12-19T09:48:25.003Z,7.47
2018-12-19T09:50:53.391Z,7.30
2018-12-19T09:53:22.307Z,6.77
2018-12-19T09:55:50.586Z,6.90
2018-12-19T09:58:19.067Z,6.43
2018-12-19T10:00:47.513Z,6.30
2018-12-19T10:03:15.762Z,6.83
2018-12-19T10:05:44.146Z,6.47
2018-12-19T10:08:12.530Z,6.60
2018-12-19T10:10:40.984Z,6.70
2018-12-19T10:13:09.410Z,5.80
2018-12-19T10:15:37.840Z,6.17
2018-12-19T10:18:06.388Z,5.90
2018-12-19T10:20:34.651Z,6.40
2018-12-19T10:23:02.926Z,6.33
2018-12-19T10:25:31.159Z,6.07
2018-12-19T10:27:59.759Z,5.73
2018-12-19T10:30:28.557Z,5.90
2018-12-19T10:32:57.455Z,5.97
2018-12-19T10:35:26.183Z,5.90
2018-12-19T10:37:54.608Z,6.03
2018-12-19T10:40:22.823Z,5.63
2018-12-19T10:42:51.208Z,6.13
2018-12-19T10:45:19.436Z,5.90
2018-12-19T10:47:47.686Z,5.63
2018-12-19T10:50:15.889Z,5.83
2018-12-19T10:52:44.204Z,6.00
2018-12-19T10:55:12.418Z,6.10
2018-12-19T10:57:40.641Z,6.40
2018-12-19T11:00:15.189Z,5.87
2018-12-19T11:02:43.671Z,5.97
2018-12-19T11:05:12.360Z,5.50
2018-12-19T11:07:40.716Z,5.90
2018-12-19T11:10:09.694Z,5.30
2018-12-19T11:12:37.991Z,5.27
2018-12-19T11:15:09.936Z,5.47
2018-12-19T11:17:38.485Z,5.25
2018-12-19T11:20:08.152Z,5.30
2018-12-19T11:22:36.540Z,5.20
2018-12-19T11:25:05.245Z,6.13
2018-12-19T11:27:33.537Z,5.27
2018-12-19T11:30:01.859Z,5.23
2018-12-19T11:32:30.941Z,5.03
2018-12-19T11:34:59.416Z,5.40
2018-12-19T11:37:27.777Z,5.40
2018-12-19T11:39:56.155Z,5.73
2018-12-19T11:42:24.598Z,5.03
2018-12-19T11:44:52.998Z,5.50
2018-12-19T11:47:21.610Z,5.43
2018-12-19T11:49:50.193Z,5.17
2018-12-19T11:52:18.812Z,5.20
2018-12-19T11:54:47.373Z,4.83
2018-12-19T11:57:15.980Z,5.23
2018-12-19T11:59:44.240Z,5.90
2018-12-19T12:02:12.492Z,5.67
2018-12-19T12:04:40.923Z,5.40
2018-12-19T12:07:09.477Z,5.37
2018-12-19T12:09:37.966Z,5.30
2018-12-19T12:12:08.160Z,5.10
2018-12-19T12:14:36.397Z,4.67
2018-12-19T12:17:04.778Z,4.63
2018-12-19T12:19:33.369Z,5.10
2018-12-19T12:22:02.015Z,4.60
2018-12-19T12:24:30.415Z,4.40
2018-12-19T12:26:58.679Z,4.80
2018-12-19T12:29:27.169Z,4.63
2018-12-19T12:31:55.382Z,3.97
2018-12-19T12:34:23.689Z,4.33
2018-12-19T12:36:51.937Z,4.07
2018-12-19T12:39:20.187Z,4.30
2018-12-19T12:41:52.314Z,4.57
2018-12-19T12:44:18.809Z,4.27
2018-12-19T12:46:47.364Z,5.10
2018-12-19T12:49:15.576Z,4.83
2018-12-19T12:51:47.602Z,4.67
2018-12-19T12:54:15.800Z,4.77
2018-12-19T12:56:44.104Z,4.47
2018-12-19T12:59:12.634Z,4.33
2018-12-19T13:01:40.878Z,4.60
2018-12-19T13:04:09.137Z,4.53
2018-12-19T13:06:37.384Z,5.00
2018-12-19T13:09:06.866Z,4.77
2018-12-19T13:11:35.600Z,5.10
2018-12-19T13:14:04.641Z,5.63
2018-12-19T13:16:32.902Z,5.07
2018-12-19T13:19:02.428Z,5.03
2018-12-19T13:21:31.037Z,4.70
2018-12-19T13:23:59.648Z,5.00
2018-12-19T13:26:27.918Z,4.90
2018-12-19T13:28:56.176Z,5.10
2018-12-19T13:31:24.401Z,4.60
2018-12-19T13:33:52.886Z,5.20
2018-12-19T13:36:21.134Z,4.93
2018-12-19T13:38:49.577Z,5.17
2018-12-19T13:41:17.764Z,4.90
2018-12-19T13:43:46.272Z,4.97
2018-12-19T13:46:14.800Z,4.73
2018-12-19T13:48:43.439Z,4.53
2018-12-19T13:51:11.651Z,3.90
2018-12-19T13:53:39.905Z,4.40
2018-12-19T13:56:08.146Z,4.57
2018-12-19T13:58:37.059Z,4.50
2018-12-19T14:01:05.397Z,4.37
2018-12-19T14:03:33.665Z,4.23
2018-12-19T14:06:02.021Z,4.23
2018-12-19T14:08:30.439Z,4.33
2018-12-19T14:10:58.852Z,4.00
2018-12-19T14:13:27.126Z,4.10
2018-12-19T14:15:55.412Z,3.80
2018-12-19T14:18:23.841Z,4.27
2018-12-19T14:20:52.337Z,3.83
2018-12-19T14:23:20.718Z,3.80
2018-12-19T14:25:49.098Z,3.67
2018-12-19T14:28:18.247Z,3.73
2018-12-19T14:30:47.060Z,3.40
2018-12-19T14:33:15.833Z,3.40
2018-12-19T14:35:44.037Z,3.77
2018-12-19T14:38:12.463Z,3.53
2018-12-19T14:40:41.339Z,3.83
2018-12-19T14:43:09.585Z,3.80
2018-12-19T14:45:37.835Z,4.00
2018-12-19T14:48:06.076Z,3.53
2018-12-19T14:50:34.566Z,4.27
2018-12-19T14:53:02.847Z,4.33
2018-12-19T14:55:31.073Z,4.27
2018-12-19T14:57:59.469Z,3.57
2018-12-19T15:00:27.852Z,3.90
2018-12-19T15:02:56.230Z,4.13
2018-12-19T15:05:24.431Z,4.40
2018-12-19T15:07:52.791Z,3.80
2018-12-19T15:10:21.112Z,3.43
2018-12-19T15:12:49.390Z,3.60
2018-12-19T15:15:17.968Z,3.70
2018-12-19T15:17:46.350Z,3.30
2018-12-19T15:20:14.730Z,3.60
2018-12-19T15:22:42.968Z,3.57
2018-12-19T15:25:11.324Z,3.50
2018-12-19T15:27:39.707Z,3.70
2018-12-19T15:30:08.272Z,3.47
2018-12-19T15:32:37.967Z,3.20
2018-12-19T15:35:06.584Z,3.97
2018-12-19T15:37:34.804Z,4.10
2018-12-19T15:40:03.397Z,3.90
2018-12-19T15:42:32.573Z,3.80
2018-12-19T15:45:01.199Z,3.97
2018-12-19T15:47:29.496Z,3.90
2018-12-19T15:49:58.195Z,4.13
2018-12-19T15:52:26.554Z,4.00
2018-12-19T15:54:55.040Z,3.90
2018-12-19T15:57:23.356Z,4.47
2018-12-19T15:59:51.567Z,4.10
2018-12-19T16:02:20.599Z,3.80
2018-12-19T16:04:48.888Z,3.83
2018-12-19T16:07:17.080Z,3.87
2018-12-19T16:09:45.677Z,3.73
2018-12-19T16:12:14.101Z,3.73
2018-12-19T16:14:42.352Z,3.67
2018-12-19T16:17:10.883Z,3.33
2018-12-19T16:19:39.366Z,3.30
2018-12-19T16:22:07.867Z,3.70
2018-12-19T16:24:36.121Z,3.50
2018-12-19T16:27:04.459Z,3.60
2018-12-19T16:29:32.745Z,3.80
2018-12-19T16:32:01.003Z,3.73
2018-12-19T16:34:29.331Z,3.83
2018-12-19T16:36:57.725Z,3.47
2018-12-19T16:39:26.096Z,3.40
2018-12-19T16:41:54.614Z,3.30
2018-12-19T16:44:23.178Z,3.20
2018-12-19T16:46:51.569Z,3.13
2018-12-19T16:49:19.951Z,3.40
2018-12-19T16:51:48.314Z,3.50
2018-12-19T16:54:16.730Z,3.40
2018-12-19T16:56:45.046Z,3.60
2018-12-19T16:59:13.439Z,3.17
2018-12-19T17:01:47.833Z,3.57
2018-12-19T17:04:16.024Z,3.30
2018-12-19T17:06:44.514Z,3.50
2018-12-19T17:09:12.792Z,3.60
2018-12-19T17:11:41.232Z,3.57
2018-12-19T17:14:09.806Z,3.63
2018-12-19T17:16:38.162Z,3.80
2018-12-19T17:19:06.786Z,3.50
2018-12-19T17:21:35.289Z,3.83
2018-12-19T17:24:03.607Z,4.07
2018-12-19T17:26:32.179Z,3.57
2018-12-19T17:29:00.395Z,3.77
2018-12-19T17:31:28.638Z,3.50
2018-12-19T17:33:56.844Z,3.60
2018-12-19T17:36:25.086Z,3.50
2018-12-19T17:38:53.503Z,3.83
2018-12-19T17:41:21.893Z,3.83
2018-12-19T17:43:50.460Z,3.47
2018-12-19T17:46:19.020Z,3.20
2018-12-19T17:48:47.290Z,3.53
2018-12-19T17:51:15.497Z,3.40
2018-12-19T17:53:43.743Z,3.47
2018-12-19T17:56:12.153Z,3.33
2018-12-19T17:58:40.506Z,3.60
2018-12-19T18:01:09.268Z,3.20
2018-12-19T18:03:37.622Z,3.50
2018-12-19T18:06:06.137Z,3.77
2018-12-19T18:08:34.738Z,3.30
2018-12-19T18:11:03.846Z,3.50
2018-12-19T18:13:32.326Z,3.07
2018-12-19T18:16:00.716Z,3.23
2018-12-19T18:18:28.983Z,3.37
2018-12-19T18:20:57.522Z,3.20
2018-12-19T18:23:25.917Z,3.90
2018-12-19T18:31:14.413Z,3.93
2018-12-19T18:33:42.691Z,4.03
2018-12-19T18:36:11.246Z,4.37
2018-12-19T18:38:39.640Z,3.90
2018-12-19T18:41:08.338Z,3.90
2018-12-19T18:43:36.754Z,4.03
2018-12-19T18:46:05.460Z,4.23
2018-12-19T18:48:33.705Z,4.20
2018-12-19T18:51:02.031Z,3.80
2018-12-19T18:53:30.396Z,4.30
2018-12-19T18:55:58.696Z,4.23
2018-12-19T18:58:27.434Z,3.87
2018-12-19T19:00:55.827Z,4.03
2018-12-19T19:03:24.226Z,4.00
2018-12-19T19:05:53.574Z,3.80
2018-12-19T19:08:25.783Z,4.10
2018-12-19T19:10:54.159Z,4.07
2018-12-19T19:13:22.753Z,4.00
2018-12-19T19:15:51.049Z,4.63
2018-12-19T19:18:19.854Z,4.33
2018-12-19T19:20:48.143Z,4.20
2018-12-19T19:23:17.342Z,4.30
2018-12-19T19:25:45.652Z,4.13
2018-12-19T19:28:14.138Z,5.30
2018-12-19T19:30:42.617Z,5.33
2018-12-19T19:33:11.410Z,5.00
2018-12-19T19:35:40.800Z,5.33
2018-12-19T19:38:09.665Z,4.87
2018-12-19T19:40:38.030Z,5.33
2018-12-19T19:43:06.471Z,5.03
2018-12-19T19:45:35.131Z,4.70
2018-12-19T19:48:03.948Z,4.50
2018-12-19T19:50:32.501Z,4.10
2018-12-19T19:53:00.810Z,5.40
2018-12-19T19:55:29.565Z,4.70
2018-12-19T19:57:58.038Z,4.70
2018-12-19T20:00:31.782Z,5.07
2018-12-19T20:03:00.392Z,4.97
2018-12-19T20:05:28.862Z,4.75
2018-12-19T20:07:57.383Z,4.80
2018-12-19T20:10:26.021Z,5.00
2018-12-19T20:12:54.488Z,4.73
2018-12-19T20:15:27.157Z,4.73
2018-12-19T20:17:56.177Z,4.60
2018-12-19T20:20:25.004Z,4.60
2018-12-19T20:22:53.452Z,4.93
2018-12-19T20:25:21.882Z,5.53
2018-12-19T20:27:50.492Z,5.20
2018-12-19T20:30:18.892Z,5.27
2018-12-19T20:32:47.157Z,4.70
2018-12-19T20:35:15.839Z,5.27
2018-12-19T20:37:44.317Z,5.10
2018-12-19T20:40:13.273Z,4.63
2018-12-19T20:42:41.565Z,4.50
2018-12-19T20:45:11.050Z,4.80
2018-12-19T20:47:39.405Z,4.17
2018-12-19T20:50:08.415Z,4.63
2018-12-19T20:52:36.983Z,5.47
2018-12-19T20:55:05.873Z,4.47
2018-12-19T20:57:34.143Z,4.10
2018-12-19T21:00:02.587Z,4.60
2018-12-19T21:02:31.309Z,4.37
2018-12-19T21:04:59.654Z,4.37
2018-12-19T21:07:28.197Z,4.80
2018-12-19T21:09:56.753Z,4.50
2018-12-19T21:12:25.186Z,4.33
2018-12-19T21:14:53.543Z,4.93
2018-12-19T21:17:27.262Z,4.37
2018-12-19T21:19:55.607Z,4.60
2018-12-19T21:22:24.041Z,4.27
2018-12-19T21:24:56.775Z,4.97
2018-12-19T21:27:25.158Z,4.47
2018-12-19T21:29:53.702Z,4.40
2018-12-19T21:32:22.591Z,5.08
2018-12-19T21:34:50.970Z,4.37
2018-12-19T21:37:20.306Z,4.53
2018-12-19T21:39:49.011Z,4.47
2018-12-19T21:42:21.032Z,4.43
2018-12-19T21:44:53.745Z,4.83
2018-12-19T21:47:22.632Z,4.90
2018-12-19T21:49:51.491Z,4.53
2018-12-19T21:52:20.538Z,4.37
2018-12-19T21:54:48.887Z,4.27
2018-12-19T21:57:17.337Z,5.00
2018-12-19T21:59:45.938Z,4.13
2018-12-19T22:02:14.474Z,4.33
2018-12-19T22:04:43.024Z,5.00
2018-12-19T22:07:11.508Z,4.83
2018-12-19T22:09:39.856Z,4.23
2018-12-19T22:12:08.238Z,4.67
2018-12-19T22:14:36.765Z,4.83
2018-12-19T22:17:10.605Z,4.60
2018-12-19T22:19:38.865Z,4.80
2018-12-19T22:22:08.059Z,4.90
2018-12-19T22:24:36.519Z,5.43
2018-12-19T22:27:05.006Z,4.50
2018-12-19T22:29:33.956Z,4.93
2018-12-19T22:32:06.342Z,4.67
2018-12-19T22:37:27.877Z,4.77
2018-12-19T22:39:56.834Z,5.50
2018-12-19T22:42:27.016Z,5.10
2018-12-19T22:44:55.472Z,5.13
2018-12-19T22:50:55.936Z,5.20
2018-12-19T22:53:24.650Z,4.70
2018-12-19T22:55:53.165Z,5.33
2018-12-19T22:58:22.114Z,5.70
2018-12-19T23:00:56.681Z,5.17
2018-12-19T23:03:30.654Z,5.27
2018-12-19T23:05:58.980Z,5.33
2018-12-19T23:08:27.208Z,5.20
2018-12-19T23:10:55.916Z,5.70
2018-12-19T23:13:24.395Z,5.43
2018-12-19T23:15:53.019Z,6.27
2018-12-19T23:18:27.693Z,5.67
2018-12-19T23:20:56.339Z,6.37
2018-12-19T23:26:06.800Z,5.80
2018-12-19T23:28:35.387Z,5.53
2018-12-19T23:31:04.020Z,6.30
2018-12-19T23:33:32.642Z,6.30
2018-12-19T23:36:00.953Z,6.67
2018-12-19T23:38:29.496Z,6.53
2018-12-19T23:40:58.016Z,6.33
2018-12-19T23:43:26.650Z,6.70
2018-12-19T23:45:55.224Z,6.43
2018-12-19T23:48:23.907Z,6.53
2018-12-19T23:50:53.108Z,6.47
2018-12-19T23:53:22.517Z,6.33
2018-12-19T23:55:51.200Z,6.50
2018-12-19T23:58:20.104Z,6.70
